MSC Orchestra — 3EJF3 — position and weather

sailwx.info

Track history (hours):
 
Tides and Currents Weather Stations Pressure Air Temp Water Temp Dewpoint Dewpoint Depression Visibility Wind Speed Wind Dir Waves Ship Positions

MSC Orchestra

Last reported at 2014-Sep-16 19:33 UTC. Time now 2014-Sep-22 16:22 UTC.
Position N 36°32' E 015°20'.

Length 292 m; draft 7.8 m.

Type: Ship. MMSI: 372497000.

Date/timePositionNaut miles runAvg speedWind from/ knotsBaromVisibWave heightAir tempDewpointWater temp
2014-Sep-16 19:33N 36°32' E 015°20'3114.8
2014-Sep-16 17:26N 36°08' E 014°55'1415.0
2014-Sep-16 16:29N 35°60' E 014°40'7 0.6
2014-Sep-16 04:23N 35°57' E 014°33'1315.5
2014-Sep-16 03:33N 36°06' E 014°22'1818.4
2014-Sep-16 02:33N 36°15' E 014°02'1818.5
2014-Sep-16 01:34N 36°23' E 013°41'2019.2
2014-Sep-16 00:32N 36°32' E 013°19'1920.0
2014-Sep-15 23:33N 36°40' E 012°57'2020.3
2014-Sep-15 22:33N 36°49' E 012°34'2020.1
2014-Sep-15 21:33N 36°58' E 012°12'6819.3
2014-Sep-15 18:04N 37°26' E 010°55'1018.4
2014-Sep-15 17:32N 37°28' E 010°43'1818.5
2014-Sep-15 16:33N 37°32' E 010°21'2119.0
2014-Sep-15 15:27N 37°35' E 009°54'4219.2
2014-Sep-15 13:14N 37°52' E 009°05'1319.3
2014-Sep-15 12:33N 37°57' E 008°49'2221.3
2014-Sep-15 11:32N 38°05' E 008°24'27421.1
2014-Sep-14 22:32N 39°17' E 002°45'17 1.7
2014-Sep-14 12:13N 39°33' E 002°38'0 0.0
2014-Sep-14 08:29N 39°33' E 002°38'5 4.1
2014-Sep-14 07:18N 39°29' E 002°36'5519.8
2014-Sep-14 04:33N 38°45' E 001°54'2221.0
2014-Sep-14 03:29N 38°29' E 001°33'2421.9
2014-Sep-14 02:22N 38°15' E 001°08'2522.5
2014-Sep-14 01:14N 38°00' E 000°41'8021.7
2014-Sep-13 21:34N 37°14' W 000°40'23821.6
2014-Sep-13 10:33N 35°59' W 005°22'15621.2
2014-Sep-13 03:12N 36°23' W 008°33'2020.6
2014-Sep-13 02:14N 36°29' W 008°56'3420.0
2014-Sep-13 00:33N 36°46' W 009°32'2120.2
2014-Sep-12 23:29N 37°08' W 009°35'2120.6
2014-Sep-12 22:28N 37°28' W 009°32'1920.7
2014-Sep-12 21:33N 37°48' W 009°30'2121.0
2014-Sep-12 20:33N 38°08' W 009°27'2020.2
2014-Sep-12 19:33N 38°28' W 009°24'1615.5
2014-Sep-12 18:33N 38°41' W 009°13'5 4.5
2014-Sep-12 17:31N 38°43' W 009°08'0 0.0
2014-Sep-12 16:33N 38°43' W 009°08'0 0.0
2014-Sep-12 15:33N 38°43' W 009°08'0 0.0
2014-Sep-12 14:32N 38°43' W 009°08'0 0.0
2014-Sep-12 13:32N 38°43' W 009°08'0 0.0
2014-Sep-12 12:31N 38°43' W 009°08'0 0.0
2014-Sep-12 11:31N 38°43' W 009°08'0 0.0
2014-Sep-12 10:34N 38°43' W 009°08'0 0.0
2014-Sep-12 09:33N 38°43' W 009°08'0 0.0
2014-Sep-12 08:33N 38°43' W 009°08'1 1.4
2014-Sep-12 07:33N 38°42' W 009°09'8 8.3
2014-Sep-12 06:34N 38°40' W 009°19'1612.9
2014-Sep-12 05:18N 38°37' W 009°40'1814.3
2014-Sep-12 04:04N 38°54' W 009°43'  
2014-Sep-09 22:17N 50°31' W 001°04'1216.3
2014-Sep-09 21:34N 50°42' W 000°58'1413.7
2014-Sep-09 20:33N 50°48' W 001°18'2 0.2
2014-Sep-09 07:33N 50°50' W 001°19'1111.0
2014-Sep-09 06:34N 50°44' W 001°04'10 9.9
2014-Sep-09 05:33N 50°37' W 000°53'1616.0
2014-Sep-09 04:33N 50°33' W 000°29'2520.5
2014-Sep-09 03:20N 50°34' E 000°10'1823.2
2014-Sep-09 02:33N 50°39' E 000°38'2321.8
2014-Sep-09 01:30N 50°53' E 001°07'1919.7
2014-Sep-09 00:33N 51°05' E 001°29'1818.4
2014-Sep-08 23:33N 51°18' E 001°50'2020.0
2014-Sep-08 22:33N 51°35' E 002°07'45320.6
2014-Sep-08 00:31N 57°44' E 009°41'2121.4
2014-Sep-07 23:33N 57°50' E 010°17'2020.3
2014-Sep-07 22:33N 57°44' E 010°54'2221.5
2014-Sep-07 21:32N 57°29' E 011°24'2122.0
2014-Sep-07 20:33N 57°09' E 011°38'2222.2
2014-Sep-07 19:33N 56°48' E 011°52'2221.8
2014-Sep-07 18:33N 56°27' E 012°01'2020.2
2014-Sep-07 17:33N 56°11' E 012°24'1919.5
2014-Sep-07 16:34N 55°56' E 012°44'1313.1
2014-Sep-07 15:33N 55°43' E 012°37'0 0.0
2014-Sep-07 14:32N 55°43' E 012°37'0 0.0
2014-Sep-07 13:32N 55°43' E 012°37'0 0.0
2014-Sep-07 12:31N 55°43' E 012°37'0 0.0
2014-Sep-07 11:31N 55°43' E 012°37'0 0.0
2014-Sep-07 10:34N 55°43' E 012°37'0 0.0
2014-Sep-07 09:33N 55°43' E 012°37'0 0.0
2014-Sep-07 08:33N 55°43' E 012°37'0 0.0
2014-Sep-07 07:32N 55°43' E 012°37'0 0.0
2014-Sep-07 06:32N 55°43' E 012°37'0 0.0
2014-Sep-07 05:31N 55°43' E 012°37'2 2.6
2014-Sep-07 04:33N 55°41' E 012°39'8 8.3
2014-Sep-07 03:33N 55°32' E 012°42'1312.5
2014-Sep-07 02:33N 55°20' E 012°39'1414.2
2014-Sep-07 01:33N 55°06' E 012°42'1514.9
2014-Sep-07 00:33N 54°51' E 012°47'1413.9
2014-Sep-06 23:33N 54°40' E 012°32'1413.6
2014-Sep-06 22:33N 54°31' E 012°16'1211.6
2014-Sep-06 21:33N 54°25' E 011°59'1313.0
2014-Sep-06 20:33N 54°27' E 011°37'1313.0
2014-Sep-06 19:33N 54°33' E 011°17'  
Track history (hours):
 
Tides and Currents Weather Stations Pressure Air Temp Water Temp Dewpoint Dewpoint Depression Visibility Wind Speed Wind Dir Waves Ship Positions

MSC Orchestra

Last reported at 2014-Sep-16 19:33 UTC. Time now 2014-Sep-22 16:22 UTC.
Position N 36°32' E 015°20'.

Length 292 m; draft 7.8 m.

Type: Ship. MMSI: 372497000.

Date/timePositionNaut miles runAvg speedWind from/ knotsBaromVisibWave heightAir tempDewpointWater temp
2014-Sep-16 19:33N 36°32' E 015°20'3114.8
2014-Sep-16 17:26N 36°08' E 014°55'1415.0
2014-Sep-16 16:29N 35°60' E 014°40'7 0.6
2014-Sep-16 04:23N 35°57' E 014°33'1315.5
2014-Sep-16 03:33N 36°06' E 014°22'1818.4
2014-Sep-16 02:33N 36°15' E 014°02'1818.5
2014-Sep-16 01:34N 36°23' E 013°41'2019.2
2014-Sep-16 00:32N 36°32' E 013°19'1920.0
2014-Sep-15 23:33N 36°40' E 012°57'2020.3
2014-Sep-15 22:33N 36°49' E 012°34'2020.1
2014-Sep-15 21:33N 36°58' E 012°12'6819.3
2014-Sep-15 18:04N 37°26' E 010°55'1018.4
2014-Sep-15 17:32N 37°28' E 010°43'1818.5
2014-Sep-15 16:33N 37°32' E 010°21'2119.0
2014-Sep-15 15:27N 37°35' E 009°54'4219.2
2014-Sep-15 13:14N 37°52' E 009°05'1319.3
2014-Sep-15 12:33N 37°57' E 008°49'2221.3
2014-Sep-15 11:32N 38°05' E 008°24'27421.1
2014-Sep-14 22:32N 39°17' E 002°45'17 1.7
2014-Sep-14 12:13N 39°33' E 002°38'0 0.0
2014-Sep-14 08:29N 39°33' E 002°38'5 4.1
2014-Sep-14 07:18N 39°29' E 002°36'5519.8
2014-Sep-14 04:33N 38°45' E 001°54'2221.0
2014-Sep-14 03:29N 38°29' E 001°33'2421.9
2014-Sep-14 02:22N 38°15' E 001°08'2522.5
2014-Sep-14 01:14N 38°00' E 000°41'8021.7
2014-Sep-13 21:34N 37°14' W 000°40'23821.6
2014-Sep-13 10:33N 35°59' W 005°22'15621.2
2014-Sep-13 03:12N 36°23' W 008°33'2020.6
2014-Sep-13 02:14N 36°29' W 008°56'3420.0
2014-Sep-13 00:33N 36°46' W 009°32'2120.2
2014-Sep-12 23:29N 37°08' W 009°35'2120.6
2014-Sep-12 22:28N 37°28' W 009°32'1920.7
2014-Sep-12 21:33N 37°48' W 009°30'2121.0
2014-Sep-12 20:33N 38°08' W 009°27'2020.2
2014-Sep-12 19:33N 38°28' W 009°24'1615.5
2014-Sep-12 18:33N 38°41' W 009°13'5 4.5
2014-Sep-12 17:31N 38°43' W 009°08'0 0.0
2014-Sep-12 16:33N 38°43' W 009°08'0 0.0
2014-Sep-12 15:33N 38°43' W 009°08'0 0.0
2014-Sep-12 14:32N 38°43' W 009°08'0 0.0
2014-Sep-12 13:32N 38°43' W 009°08'0 0.0
2014-Sep-12 12:31N 38°43' W 009°08'0 0.0
2014-Sep-12 11:31N 38°43' W 009°08'0 0.0
2014-Sep-12 10:34N 38°43' W 009°08'0 0.0
2014-Sep-12 09:33N 38°43' W 009°08'0 0.0
2014-Sep-12 08:33N 38°43' W 009°08'1 1.4
2014-Sep-12 07:33N 38°42' W 009°09'8 8.3
2014-Sep-12 06:34N 38°40' W 009°19'1612.9
2014-Sep-12 05:18N 38°37' W 009°40'1814.3
2014-Sep-12 04:04N 38°54' W 009°43'  
2014-Sep-09 22:17N 50°31' W 001°04'1216.3
2014-Sep-09 21:34N 50°42' W 000°58'1413.7
2014-Sep-09 20:33N 50°48' W 001°18'2 0.2
2014-Sep-09 07:33N 50°50' W 001°19'1111.0
2014-Sep-09 06:34N 50°44' W 001°04'10 9.9
2014-Sep-09 05:33N 50°37' W 000°53'1616.0
2014-Sep-09 04:33N 50°33' W 000°29'2520.5
2014-Sep-09 03:20N 50°34' E 000°10'1823.2
2014-Sep-09 02:33N 50°39' E 000°38'2321.8
2014-Sep-09 01:30N 50°53' E 001°07'1919.7
2014-Sep-09 00:33N 51°05' E 001°29'1818.4
2014-Sep-08 23:33N 51°18' E 001°50'2020.0
2014-Sep-08 22:33N 51°35' E 002°07'45320.6
2014-Sep-08 00:31N 57°44' E 009°41'2121.4
2014-Sep-07 23:33N 57°50' E 010°17'2020.3
2014-Sep-07 22:33N 57°44' E 010°54'2221.5
2014-Sep-07 21:32N 57°29' E 011°24'2122.0
2014-Sep-07 20:33N 57°09' E 011°38'2222.2
2014-Sep-07 19:33N 56°48' E 011°52'2221.8
2014-Sep-07 18:33N 56°27' E 012°01'2020.2
2014-Sep-07 17:33N 56°11' E 012°24'1919.5
2014-Sep-07 16:34N 55°56' E 012°44'1313.1
2014-Sep-07 15:33N 55°43' E 012°37'0 0.0
2014-Sep-07 14:32N 55°43' E 012°37'0 0.0
2014-Sep-07 13:32N 55°43' E 012°37'0 0.0
2014-Sep-07 12:31N 55°43' E 012°37'0 0.0
2014-Sep-07 11:31N 55°43' E 012°37'0 0.0
2014-Sep-07 10:34N 55°43' E 012°37'0 0.0
2014-Sep-07 09:33N 55°43' E 012°37'0 0.0
2014-Sep-07 08:33N 55°43' E 012°37'0 0.0
2014-Sep-07 07:32N 55°43' E 012°37'0 0.0
2014-Sep-07 06:32N 55°43' E 012°37'0 0.0
2014-Sep-07 05:31N 55°43' E 012°37'2 2.6
2014-Sep-07 04:33N 55°41' E 012°39'8 8.3
2014-Sep-07 03:33N 55°32' E 012°42'1312.5
2014-Sep-07 02:33N 55°20' E 012°39'1414.2
2014-Sep-07 01:33N 55°06' E 012°42'1514.9
2014-Sep-07 00:33N 54°51' E 012°47'1413.9
2014-Sep-06 23:33N 54°40' E 012°32'1413.6
2014-Sep-06 22:33N 54°31' E 012°16'1211.6
2014-Sep-06 21:33N 54°25' E 011°59'1313.0
2014-Sep-06 20:33N 54°27' E 011°37'1313.0
2014-Sep-06 19:33N 54°33' E 011°17'  

Dump ship's entire track history